createdAt,value
2019-02-07T00:01:46.515Z,16.93
2019-02-07T00:04:32.412Z,18.13
2019-02-07T00:07:18.533Z,16.47
2019-02-07T00:10:26.245Z,17.40
2019-02-07T00:13:14.030Z,17.83
2019-02-07T00:15:59.941Z,16.90
2019-02-07T00:18:46.060Z,18.67
2019-02-07T00:21:31.960Z,18.27
2019-02-07T00:24:11.864Z,18.80
2019-02-07T00:26:58.219Z,17.77
2019-02-07T00:29:44.147Z,16.67
2019-02-07T00:32:30.043Z,18.00
2019-02-07T00:35:16.053Z,17.33
2019-02-07T00:38:02.021Z,17.80
2019-02-07T00:40:48.469Z,17.50
2019-02-07T00:43:34.352Z,19.20
2019-02-07T00:46:20.490Z,19.03
2019-02-07T00:49:06.377Z,17.50
2019-02-07T00:51:52.267Z,18.13
2019-02-07T00:54:38.163Z,16.23
2019-02-07T00:57:24.066Z,17.37
2019-02-07T01:00:29.851Z,16.77
2019-02-07T01:03:15.734Z,17.23
2019-02-07T01:06:01.951Z,16.73
2019-02-07T01:08:47.842Z,17.70
2019-02-07T01:11:34.247Z,17.97
2019-02-07T01:14:20.233Z,17.00
2019-02-07T01:17:06.384Z,18.10
2019-02-07T01:19:52.288Z,17.80
2019-02-07T01:22:38.195Z,17.53
2019-02-07T01:25:18.752Z,17.67
2019-02-07T01:28:04.655Z,17.87
2019-02-07T01:30:50.560Z,16.63
2019-02-07T01:33:36.759Z,17.07
2019-02-07T01:36:22.649Z,16.27
2019-02-07T01:39:08.779Z,17.20
2019-02-07T01:41:54.699Z,18.10
2019-02-07T01:44:40.599Z,17.87
2019-02-07T01:47:26.498Z,16.97
2019-02-07T01:50:32.276Z,16.33
2019-02-07T01:53:18.191Z,16.50
2019-02-07T01:56:04.286Z,17.10
2019-02-07T01:58:44.743Z,16.87
2019-02-07T02:01:30.904Z,16.37
2019-02-07T02:04:16.875Z,15.70
2019-02-07T02:07:02.884Z,16.77
2019-02-07T02:09:48.777Z,18.83
2019-02-07T02:12:34.670Z,16.67
2019-02-07T02:15:24.505Z,15.90
2019-02-07T02:18:08.769Z,16.13
2019-02-07T02:20:54.780Z,16.00
2019-02-07T02:23:40.670Z,17.43
2019-02-07T02:26:26.866Z,17.90
2019-02-07T02:29:12.750Z,17.73
2019-02-07T02:31:58.851Z,17.23
2019-02-07T02:34:44.747Z,16.50
2019-02-07T02:37:30.640Z,16.57
2019-02-07T02:40:16.826Z,15.30
2019-02-07T02:43:02.949Z,15.97
2019-02-07T02:45:49.067Z,15.23
2019-02-07T02:48:35.064Z,15.23
2019-02-07T02:51:21.187Z,16.20
2019-02-07T02:57:07.551Z,16.97
2019-02-07T02:59:47.327Z,15.30
2019-02-07T03:02:53.120Z,14.67
2019-02-07T03:05:59.141Z,16.10
2019-02-07T03:09:05.020Z,16.27
2019-02-07T03:15:18.255Z,14.47
2019-02-07T03:21:31.909Z,15.13
2019-02-07T03:24:37.683Z,15.87
2019-02-07T03:27:43.481Z,15.73
2019-02-07T03:33:56.741Z,15.10
2019-02-07T03:37:02.535Z,15.63
2019-02-07T03:40:08.307Z,16.30
2019-02-07T03:43:14.332Z,14.93
2019-02-07T03:49:27.560Z,16.37
2019-02-07T03:52:33.393Z,13.27
2019-02-07T03:55:39.237Z,13.17
2019-02-07T03:58:45.033Z,15.90
2019-02-07T04:01:50.825Z,15.40
2019-02-07T04:04:56.621Z,14.77
2019-02-07T04:11:02.871Z,14.97
2019-02-07T04:14:08.983Z,15.10
2019-02-07T04:17:14.875Z,14.93
2019-02-07T04:20:20.658Z,15.57
2019-02-07T04:23:26.447Z,15.33
2019-02-07T04:26:32.460Z,15.73
2019-02-07T04:32:38.918Z,15.80
2019-02-07T04:35:44.706Z,15.50
2019-02-07T04:41:57.951Z,15.83
2019-02-07T04:45:03.963Z,15.23
2019-02-07T04:51:17.219Z,15.30
2019-02-07T04:54:23.195Z,15.47
2019-02-07T04:57:28.983Z,15.83
2019-02-07T05:03:33.431Z,15.77
2019-02-07T05:09:39.671Z,16.13
2019-02-07T05:15:45.930Z,15.57
2019-02-07T05:18:51.713Z,15.67
2019-02-07T05:24:58.191Z,16.63
2019-02-07T05:28:04.227Z,17.83
2019-02-07T05:31:10.024Z,14.97
2019-02-07T05:34:15.815Z,17.27
2019-02-07T05:37:22.239Z,16.60
2019-02-07T05:46:37.151Z,16.70
2019-02-07T05:49:42.948Z,16.57
2019-02-07T06:01:57.209Z,15.97
2019-02-07T06:05:02.998Z,17.20
2019-02-07T06:08:08.773Z,17.23
2019-02-07T06:11:14.673Z,15.90
2019-02-07T06:17:28.017Z,15.90
2019-02-07T06:20:33.812Z,16.17
2019-02-07T06:23:39.587Z,15.70
2019-02-07T06:26:45.790Z,15.80
2019-02-07T06:29:51.795Z,15.20
2019-02-07T06:32:57.583Z,16.20
2019-02-07T06:39:10.834Z,16.30
2019-02-07T06:42:16.623Z,15.90
2019-02-07T06:45:24.302Z,16.40
2019-02-07T06:48:30.103Z,15.57
2019-02-07T06:51:35.889Z,15.37
2019-02-07T06:54:41.684Z,15.83
2019-02-07T07:03:48.770Z,15.57
2019-02-07T07:06:55.079Z,14.73
2019-02-07T07:10:00.959Z,15.33
2019-02-07T07:13:06.743Z,16.63
2019-02-07T07:19:19.997Z,15.37
2019-02-07T07:22:25.773Z,15.17
2019-02-07T07:25:31.899Z,15.93
2019-02-07T07:31:45.870Z,16.53
2019-02-07T07:37:33.010Z,15.37
2019-02-07T07:43:39.496Z,16.53
2019-02-07T07:52:46.194Z,16.23
2019-02-07T07:58:52.450Z,15.47
2019-02-07T08:07:59.867Z,15.70
2019-02-07T08:14:06.431Z,16.70
2019-02-07T08:17:12.454Z,15.47
2019-02-07T08:20:18.521Z,17.10
2019-02-07T08:29:25.232Z,19.60
2019-02-07T08:35:31.478Z,17.80
2019-02-07T08:38:31.025Z,18.60
2019-02-07T08:44:44.263Z,18.40
2019-02-07T08:47:58.448Z,19.87
2019-02-07T08:56:23.859Z,19.23
2019-02-07T08:58:57.667Z,18.70
2019-02-07T09:04:49.707Z,19.10
2019-02-07T09:11:02.962Z,19.57
2019-02-07T09:14:09.106Z,17.87
2019-02-07T09:17:14.888Z,19.13
2019-02-07T09:20:14.143Z,19.00
2019-02-07T09:23:20.347Z,18.67
2019-02-07T09:26:26.237Z,18.17
2019-02-07T09:29:32.012Z,18.60
2019-02-07T09:32:38.044Z,17.80
2019-02-07T09:44:52.240Z,19.37
2019-02-07T09:53:58.964Z,19.27
2019-02-07T09:57:04.883Z,19.30
2019-02-07T10:00:10.904Z,18.80
2019-02-07T10:03:16.682Z,17.47
2019-02-07T10:06:22.756Z,19.80
2019-02-07T10:09:28.656Z,19.13
2019-02-07T10:12:34.659Z,18.53
2019-02-07T10:15:40.438Z,19.33
2019-02-07T10:21:47.394Z,19.47
2019-02-07T10:24:53.178Z,20.77
2019-02-07T10:27:58.966Z,19.53
2019-02-07T10:31:05.172Z,18.10
2019-02-07T10:34:10.955Z,19.67
2019-02-07T10:40:17.221Z,20.43
2019-02-07T10:43:23.811Z,21.73
2019-02-07T10:46:29.604Z,18.93
2019-02-07T10:49:35.630Z,19.10
2019-02-07T10:52:41.430Z,19.50
2019-02-07T11:01:55.249Z,18.67
2019-02-07T11:05:01.061Z,19.53
2019-02-07T11:08:06.876Z,18.23
2019-02-07T11:11:13.023Z,19.43
2019-02-07T11:14:18.831Z,18.47
2019-02-07T11:17:18.600Z,19.83
2019-02-07T11:20:26.920Z,19.70
2019-02-07T11:23:32.701Z,19.07
2019-02-07T11:26:38.487Z,19.30
2019-02-07T11:29:44.288Z,19.47
2019-02-07T11:35:22.158Z,20.13
2019-02-07T11:37:55.814Z,19.07
2019-02-07T11:41:02.257Z,21.57
2019-02-07T11:44:08.042Z,20.20
2019-02-07T11:47:13.835Z,20.63
2019-02-07T11:50:19.631Z,21.33
2019-02-07T11:53:25.408Z,20.97
2019-02-07T11:56:31.457Z,20.37
2019-02-07T11:59:37.467Z,21.20
2019-02-07T12:02:43.262Z,21.37
2019-02-07T12:05:49.135Z,23.70
2019-02-07T12:08:55.159Z,21.57
2019-02-07T12:12:01.153Z,20.77
2019-02-07T12:15:06.931Z,19.83
2019-02-07T12:21:13.273Z,21.93
2019-02-07T12:24:19.081Z,21.73
2019-02-07T12:27:25.001Z,20.83
2019-02-07T12:30:32.696Z,21.10
2019-02-07T12:36:38.963Z,20.23
2019-02-07T12:39:23.756Z,20.13
2019-02-07T12:45:37.219Z,21.53
2019-02-07T12:48:43.296Z,21.20
2019-02-07T12:51:49.075Z,22.00
2019-02-07T12:54:54.862Z,22.40
2019-02-07T12:58:00.651Z,22.00
2019-02-07T13:01:06.684Z,20.77
2019-02-07T13:04:12.466Z,23.43
2019-02-07T13:07:18.259Z,23.50
2019-02-07T13:10:26.163Z,21.73
2019-02-07T13:13:31.936Z,22.80
2019-02-07T13:19:40.549Z,22.07
2019-02-07T13:22:45.988Z,22.87
2019-02-07T13:25:51.811Z,24.10
2019-02-07T13:37:59.061Z,23.10
2019-02-07T13:40:58.185Z,23.97
2019-02-07T13:53:05.374Z,23.67
2019-02-07T13:56:11.176Z,23.93
2019-02-07T13:59:17.195Z,23.10
2019-02-07T14:02:23.200Z,22.33
2019-02-07T14:05:29.567Z,24.30
2019-02-07T14:08:38.312Z,23.07
2019-02-07T14:11:43.308Z,22.70
2019-02-07T14:14:49.087Z,23.00
2019-02-07T14:20:55.345Z,23.53
2019-02-07T14:24:01.390Z,25.17
2019-02-07T14:27:07.493Z,24.73
2019-02-07T14:30:13.272Z,26.33
2019-02-07T14:33:19.285Z,24.77
2019-02-07T14:36:25.150Z,22.67
2019-02-07T14:39:07.809Z,25.10
2019-02-07T14:45:21.351Z,25.10
2019-02-07T14:51:07.723Z,23.93
2019-02-07T14:53:53.611Z,24.90
2019-02-07T14:56:39.497Z,24.70
2019-02-07T14:59:25.641Z,28.40
2019-02-07T15:02:11.622Z,25.33
2019-02-07T15:04:57.524Z,24.80
2019-02-07T15:07:43.415Z,27.77
2019-02-07T15:10:29.563Z,26.53
2019-02-07T15:13:15.543Z,26.83
2019-02-07T15:16:01.697Z,25.53
2019-02-07T15:18:47.587Z,26.20
2019-02-07T15:21:33.482Z,25.57
2019-02-07T15:24:19.364Z,28.43
2019-02-07T15:27:05.370Z,26.10
2019-02-07T15:29:51.255Z,26.23
2019-02-07T15:32:37.229Z,25.93
2019-02-07T15:35:45.132Z,26.07
2019-02-07T15:38:31.047Z,26.20
2019-02-07T15:41:16.963Z,27.40
2019-02-07T15:44:03.309Z,25.40
2019-02-07T15:46:49.274Z,27.20
2019-02-07T15:49:35.357Z,25.23
2019-02-07T15:52:21.260Z,26.57
2019-02-07T15:55:07.260Z,25.83
2019-02-07T15:57:53.258Z,26.13
2019-02-07T16:00:59.043Z,25.73
2019-02-07T16:06:45.400Z,25.37
2019-02-07T16:09:31.301Z,25.57
2019-02-07T16:12:17.339Z,24.43
2019-02-07T16:15:25.023Z,24.73
2019-02-07T16:18:10.917Z,25.67
2019-02-07T16:20:56.811Z,24.57
2019-02-07T16:23:42.699Z,24.87
2019-02-07T16:26:29.029Z,24.77
2019-02-07T16:29:14.917Z,25.00
2019-02-07T16:32:00.825Z,24.23
2019-02-07T16:34:46.707Z,25.30
2019-02-07T16:37:32.850Z,24.70
2019-02-07T16:40:38.925Z,24.83
2019-02-07T16:43:24.823Z,25.50
2019-02-07T16:46:10.716Z,23.13
2019-02-07T16:48:56.874Z,26.17
2019-02-07T16:51:44.910Z,26.00
2019-02-07T16:54:31.044Z,25.23
2019-02-07T16:57:16.949Z,25.67
2019-02-07T17:00:24.616Z,26.27
2019-02-07T17:03:04.990Z,24.90
2019-02-07T17:05:50.940Z,24.10
2019-02-07T17:08:37.111Z,22.97
2019-02-07T17:11:22.995Z,22.73
2019-02-07T17:14:08.991Z,23.47
2019-02-07T17:16:55.140Z,23.57
2019-02-07T17:19:41.035Z,23.87
2019-02-07T17:22:20.207Z,23.50
2019-02-07T17:25:06.416Z,21.13
2019-02-07T17:27:52.444Z,20.80
2019-02-07T17:30:38.394Z,22.40
2019-02-07T17:33:24.293Z,26.07
2019-02-07T17:36:10.228Z,24.33
2019-02-07T17:38:56.120Z,24.80
2019-02-07T17:41:42.114Z,22.53
2019-02-07T17:44:28.227Z,21.50
2019-02-07T17:47:14.371Z,22.03
2019-02-07T17:50:00.258Z,21.50
2019-02-07T17:52:46.275Z,23.00
2019-02-07T17:55:32.158Z,24.43
2019-02-07T17:58:18.062Z,21.83
2019-02-07T18:04:12.346Z,20.70
2019-02-07T18:06:58.463Z,19.43
2019-02-07T18:09:44.378Z,19.20
2019-02-07T18:12:30.446Z,24.80
2019-02-07T18:15:16.458Z,18.00
2019-02-07T18:18:02.869Z,16.57
2019-02-07T18:20:48.854Z,17.90
2019-02-07T18:23:28.816Z,18.10
2019-02-07T18:26:14.947Z,16.50
2019-02-07T18:29:00.846Z,18.67
2019-02-07T18:31:47.150Z,16.80
2019-02-07T18:34:33.297Z,16.57
2019-02-07T18:37:19.219Z,16.83
2019-02-07T18:40:25.011Z,16.47
2019-02-07T18:43:10.903Z,17.43
2019-02-07T18:45:57.075Z,17.27
2019-02-07T18:48:42.961Z,15.67
2019-02-07T18:51:29.161Z,16.60
2019-02-07T18:54:15.060Z,16.50
2019-02-07T18:57:00.971Z,17.23
2019-02-07T18:59:46.871Z,15.70
2019-02-07T19:02:32.986Z,17.47
2019-02-07T19:05:19.895Z,13.93
2019-02-07T19:08:05.888Z,15.47
2019-02-07T19:10:52.023Z,14.67
2019-02-07T19:13:38.140Z,15.60
2019-02-07T19:16:24.059Z,14.00
2019-02-07T19:19:10.220Z,16.07
2019-02-07T19:21:57.433Z,14.97
2019-02-07T19:24:44.261Z,14.70
2019-02-07T19:27:30.270Z,17.20
2019-02-07T19:30:36.058Z,14.93
2019-02-07T19:33:22.544Z,14.23
2019-02-07T19:36:09.766Z,15.37
2019-02-07T19:38:55.651Z,16.47
2019-02-07T19:41:41.613Z,15.73
2019-02-07T19:44:27.735Z,14.63
2019-02-07T19:47:13.622Z,13.50
2019-02-07T19:49:59.559Z,13.77
2019-02-07T19:52:45.984Z,13.17
2019-02-07T19:55:31.871Z,13.37
2019-02-07T19:58:17.784Z,15.17
2019-02-07T20:01:03.761Z,13.77
2019-02-07T20:03:49.674Z,14.53
2019-02-07T20:06:35.836Z,15.63
2019-02-07T20:09:21.753Z,15.50
2019-02-07T20:12:07.875Z,15.70
2019-02-07T20:14:53.759Z,15.00
2019-02-07T20:17:33.520Z,14.87
2019-02-07T20:20:19.419Z,15.13
2019-02-07T20:23:05.311Z,14.60
2019-02-07T20:25:51.440Z,13.80
2019-02-07T20:28:37.354Z,14.13
2019-02-07T20:31:23.343Z,14.33
2019-02-07T20:34:09.326Z,13.70
2019-02-07T20:36:55.215Z,13.07
2019-02-07T20:39:41.119Z,12.57
2019-02-07T20:42:27.025Z,13.90
2019-02-07T20:45:13.142Z,12.50
2019-02-07T20:47:59.459Z,14.83
2019-02-07T20:50:45.352Z,13.70
2019-02-07T20:53:31.579Z,13.70
2019-02-07T20:56:17.476Z,13.57
2019-02-07T20:59:03.378Z,13.23
2019-02-07T21:01:49.679Z,14.67
2019-02-07T21:04:35.587Z,13.80
2019-02-07T21:07:21.473Z,14.80
2019-02-07T21:10:27.256Z,14.53
2019-02-07T21:13:13.147Z,11.90
2019-02-07T21:15:53.086Z,14.83
2019-02-07T21:18:38.995Z,14.53
2019-02-07T21:21:25.123Z,13.10
2019-02-07T21:24:11.367Z,12.80
2019-02-07T21:26:57.504Z,15.63
2019-02-07T21:29:43.486Z,13.43
2019-02-07T21:32:29.394Z,13.33
2019-02-07T21:35:37.299Z,12.27
2019-02-07T21:38:23.207Z,14.30
2019-02-07T21:41:09.511Z,12.73
2019-02-07T21:43:55.640Z,13.07
2019-02-07T21:46:41.547Z,14.03
2019-02-07T21:49:27.448Z,15.63
2019-02-07T21:52:13.451Z,15.43
2019-02-07T21:54:59.375Z,15.40
2019-02-07T21:57:45.285Z,14.97
2019-02-07T22:00:52.961Z,14.07
2019-02-07T22:03:38.863Z,13.00
2019-02-07T22:06:24.766Z,13.03
2019-02-07T22:09:10.765Z,13.90
2019-02-07T22:11:56.663Z,13.60
2019-02-07T22:14:42.572Z,12.93
2019-02-07T22:17:21.971Z,12.87
2019-02-07T22:20:29.638Z,14.80
2019-02-07T22:23:15.545Z,11.83
2019-02-07T22:26:01.440Z,12.13
2019-02-07T22:28:47.575Z,11.93
2019-02-07T22:31:33.699Z,12.37
2019-02-07T22:34:19.595Z,11.40
2019-02-07T22:37:05.743Z,12.90
2019-02-07T22:39:51.642Z,11.67
2019-02-07T22:42:37.526Z,11.67
2019-02-07T22:45:24.043Z,12.03
2019-02-07T22:48:09.937Z,12.13
2019-02-07T22:50:55.842Z,12.17
2019-02-07T22:53:41.983Z,12.77
2019-02-07T22:56:27.879Z,12.13
2019-02-07T22:59:13.782Z,12.17
2019-02-07T23:02:00.067Z,11.77
2019-02-07T23:04:45.984Z,12.17
2019-02-07T23:07:32.308Z,11.47
2019-02-07T23:10:18.459Z,12.33
2019-02-07T23:13:04.791Z,12.40
2019-02-07T23:15:44.095Z,12.50
2019-02-07T23:18:30.227Z,13.03
2019-02-07T23:21:16.119Z,13.27
2019-02-07T23:24:02.022Z,11.67
2019-02-07T23:26:48.251Z,12.73
2019-02-07T23:29:45.791Z,13.97
2019-02-07T23:32:31.699Z,11.63
2019-02-07T23:35:17.624Z,11.37
2019-02-07T23:38:03.819Z,12.03
2019-02-07T23:40:49.749Z,11.50
2019-02-07T23:43:36.048Z,11.07
2019-02-07T23:46:21.956Z,9.83
2019-02-07T23:49:08.171Z,10.33
2019-02-07T23:51:54.075Z,9.50
2019-02-07T23:54:39.980Z,10.63
2019-02-07T23:57:25.890Z,11.50
